createdAt,value
2023-03-05T00:01:25.798Z,79.82
2023-03-05T00:03:55.527Z,97.03
2023-03-05T00:06:25.586Z,84.30
2023-03-05T00:08:53.563Z,85.93
2023-03-05T00:11:21.448Z,74.72
2023-03-05T00:13:52.357Z,89.57
2023-03-05T00:16:20.655Z,85.63
2023-03-05T00:18:48.791Z,83.88
2023-03-05T00:21:21.074Z,85.20
2023-03-05T00:23:50.762Z,84.50
2023-03-05T00:26:20.599Z,80.70
2023-03-05T00:28:52.628Z,86.15
2023-03-05T00:31:22.159Z,81.00
2023-03-05T00:33:54.453Z,78.32
2023-03-05T00:38:49.653Z,86.75
2023-03-05T00:41:17.259Z,82.18
2023-03-05T00:43:44.791Z,88.82
2023-03-05T00:46:12.383Z,76.00
2023-03-05T00:48:39.790Z,81.70
2023-03-05T00:51:07.446Z,84.03
2023-03-05T00:53:35.237Z,82.03
2023-03-05T00:56:02.825Z,76.45
2023-03-05T00:58:30.306Z,84.95
2023-03-05T01:01:00.025Z,88.50
2023-03-05T01:03:30.541Z,89.18
2023-03-05T01:05:59.158Z,103.18
2023-03-05T01:08:27.660Z,93.65
2023-03-05T01:10:55.368Z,95.18
2023-03-05T01:13:23.116Z,95.05
2023-03-05T01:15:51.149Z,87.53
2023-03-05T01:18:19.782Z,94.13
2023-03-05T01:20:48.268Z,88.45
2023-03-05T01:23:15.897Z,91.80
2023-03-05T01:25:43.350Z,103.63
2023-03-05T01:28:11.176Z,106.60
2023-03-05T01:30:38.627Z,103.57
2023-03-05T01:33:06.033Z,100.35
2023-03-05T01:35:33.513Z,100.78
2023-03-05T01:38:01.070Z,95.75
2023-03-05T01:40:30.422Z,102.40
2023-03-05T01:43:13.577Z,95.63
2023-03-05T01:46:19.306Z,93.97
2023-03-05T01:48:54.400Z,95.10
2023-03-05T01:51:27.008Z,92.70
2023-03-05T01:53:57.549Z,92.82
2023-03-05T01:56:27.353Z,91.95
2023-03-05T01:58:57.921Z,95.60
2023-03-05T02:01:25.468Z,92.03
2023-03-05T02:03:53.033Z,90.00
2023-03-05T02:06:20.512Z,92.68
2023-03-05T02:08:47.938Z,95.13
2023-03-05T02:11:15.417Z,90.10
2023-03-05T02:13:43.209Z,86.63
2023-03-05T02:16:10.958Z,102.53
2023-03-05T02:18:38.556Z,87.88
2023-03-05T02:21:06.715Z,95.03
2023-03-05T02:23:36.730Z,96.53
2023-03-05T02:26:10.057Z,87.53
2023-03-05T02:28:46.928Z,88.20
2023-03-05T02:31:18.135Z,86.18
2023-03-05T02:33:46.732Z,92.28
2023-03-05T02:36:15.228Z,98.50
2023-03-05T02:38:45.868Z,107.05
2023-03-05T02:41:14.123Z,87.72
2023-03-05T02:43:42.173Z,94.82
2023-03-05T02:46:09.832Z,97.05
2023-03-05T02:48:37.413Z,98.10
2023-03-05T02:51:06.889Z,95.70
2023-03-05T02:53:34.817Z,93.47
2023-03-05T02:56:03.085Z,89.65
2023-03-05T02:58:33.525Z,91.93
2023-03-05T03:01:01.030Z,91.95
2023-03-05T03:03:28.562Z,88.72
2023-03-05T03:05:56.137Z,90.25
2023-03-05T03:08:23.535Z,88.63
2023-03-05T03:10:50.944Z,83.20
2023-03-05T03:13:18.372Z,84.22
2023-03-05T03:15:46.480Z,92.80
2023-03-05T03:18:13.856Z,89.60
2023-03-05T03:20:41.371Z,83.65
2023-03-05T03:23:08.737Z,87.28
2023-03-05T03:25:36.274Z,78.25
2023-03-05T03:28:03.682Z,79.72
2023-03-05T03:30:31.109Z,86.13
2023-03-05T03:32:58.547Z,80.90
2023-03-05T03:35:25.959Z,80.60
2023-03-05T03:37:53.413Z,82.10
2023-03-05T03:40:20.927Z,80.38
2023-03-05T03:42:48.488Z,79.07
2023-03-05T03:45:16.054Z,77.97
2023-03-05T03:47:43.644Z,77.90
2023-03-05T03:50:11.676Z,79.45
2023-03-05T03:52:39.111Z,83.18
2023-03-05T03:55:06.908Z,76.88
2023-03-05T03:57:34.626Z,72.13
2023-03-05T04:00:02.173Z,79.95
2023-03-05T04:02:39.484Z,78.28
2023-03-05T04:05:07.651Z,80.45
2023-03-05T04:07:35.080Z,74.00
2023-03-05T04:10:02.773Z,74.97
2023-03-05T04:12:30.246Z,73.80
2023-03-05T04:14:57.763Z,77.38
2023-03-05T04:17:25.212Z,78.35
2023-03-05T04:19:52.659Z,69.05
2023-03-05T04:22:20.082Z,74.53
2023-03-05T04:24:47.557Z,66.93
2023-03-05T04:27:15.028Z,71.10
2023-03-05T04:29:42.459Z,65.30
2023-03-05T04:32:09.904Z,59.35
2023-03-05T04:34:38.187Z,70.10
2023-03-05T04:37:05.825Z,58.88
2023-03-05T04:39:33.298Z,65.22
2023-03-05T04:42:00.733Z,59.97
2023-03-05T04:44:28.191Z,59.67
2023-03-05T04:46:55.663Z,60.13
2023-03-05T04:49:23.103Z,65.60
2023-03-05T04:51:50.586Z,63.63
2023-03-05T04:54:17.966Z,72.25
2023-03-05T04:56:45.372Z,64.55
2023-03-05T04:59:13.391Z,70.05
2023-03-05T05:01:40.860Z,78.75
2023-03-05T05:04:08.589Z,81.53
2023-03-05T05:06:36.848Z,87.60
2023-03-05T05:09:04.468Z,75.47
2023-03-05T05:11:31.863Z,78.93
2023-03-05T05:13:59.317Z,70.38
2023-03-05T05:16:26.736Z,75.93
2023-03-05T05:18:54.216Z,80.28
2023-03-05T05:21:21.691Z,85.50
2023-03-05T05:23:49.168Z,84.25
2023-03-05T05:26:16.669Z,81.15
2023-03-05T05:28:44.423Z,73.53
2023-03-05T05:31:14.452Z,81.60
2023-03-05T05:33:42.539Z,81.10
2023-03-05T05:36:14.521Z,80.63
2023-03-05T05:38:42.395Z,85.95
2023-03-05T05:41:13.718Z,85.80
2023-03-05T05:43:41.413Z,79.65
2023-03-05T05:46:12.971Z,79.90
2023-03-05T05:48:40.460Z,81.47
2023-03-05T05:51:10.149Z,79.60
2023-03-05T05:53:37.823Z,83.68
2023-03-05T05:56:07.640Z,89.50
2023-03-05T05:58:36.567Z,82.95
2023-03-05T06:01:11.949Z,85.45
2023-03-05T06:03:39.443Z,83.03
2023-03-05T06:06:12.259Z,76.97
2023-03-05T06:08:39.958Z,81.90
2023-03-05T06:11:07.616Z,87.82
2023-03-05T06:13:35.257Z,84.15
2023-03-05T06:16:06.262Z,80.60
2023-03-05T06:18:35.116Z,82.05
2023-03-05T06:21:08.332Z,88.60
2023-03-05T06:23:35.917Z,74.45
2023-03-05T06:26:05.366Z,73.93
2023-03-05T06:28:33.784Z,73.53
2023-03-05T06:31:13.402Z,76.68
2023-03-05T06:33:41.651Z,71.93
2023-03-05T06:36:14.663Z,69.07
2023-03-05T06:38:42.470Z,72.93
2023-03-05T06:41:15.964Z,64.60
2023-03-05T06:43:45.622Z,70.15
2023-03-05T06:46:14.404Z,65.13
2023-03-05T06:48:43.265Z,66.13
2023-03-05T06:51:20.312Z,71.93
2023-03-05T06:53:49.579Z,69.63
2023-03-05T06:56:19.018Z,67.18
2023-03-05T06:58:48.590Z,67.20
2023-03-05T07:01:16.389Z,71.80
2023-03-05T07:03:44.238Z,65.63
2023-03-05T07:06:14.029Z,70.55
2023-03-05T07:08:42.072Z,58.50
2023-03-05T07:11:11.199Z,61.67
2023-03-05T07:13:38.642Z,62.60
2023-03-05T07:16:13.518Z,55.80
2023-03-05T07:18:40.969Z,64.43
2023-03-05T07:21:11.241Z,55.78
2023-03-05T07:23:38.723Z,64.65
2023-03-05T07:26:07.114Z,59.55
2023-03-05T07:28:35.299Z,57.53
2023-03-05T07:31:05.346Z,54.63
2023-03-05T07:33:33.785Z,59.20
2023-03-05T07:36:01.615Z,63.10
2023-03-05T07:38:29.062Z,59.83
2023-03-05T07:40:56.499Z,54.33
2023-03-05T07:43:23.977Z,55.50
2023-03-05T07:45:51.458Z,53.38
2023-03-05T07:48:22.685Z,54.95
2023-03-05T07:50:50.883Z,59.70
2023-03-05T07:53:18.283Z,52.55
2023-03-05T07:55:47.231Z,50.80
2023-03-05T07:58:14.850Z,47.53
2023-03-05T08:00:42.291Z,46.53
2023-03-05T08:03:09.781Z,49.92
2023-03-05T08:05:40.117Z,52.03
2023-03-05T08:08:08.297Z,48.33
2023-03-05T08:10:36.806Z,50.70
2023-03-05T08:13:04.761Z,57.67
2023-03-05T08:15:32.468Z,47.15
2023-03-05T08:18:00.168Z,49.40
2023-03-05T08:20:27.679Z,56.38
2023-03-05T08:22:55.067Z,50.88
2023-03-05T08:25:22.701Z,52.20
2023-03-05T08:27:50.133Z,48.30
2023-03-05T08:30:20.245Z,54.78
2023-03-05T08:32:50.098Z,66.85
2023-03-05T08:35:17.578Z,53.30
2023-03-05T08:37:44.984Z,47.33
2023-03-05T08:40:12.876Z,59.60
2023-03-05T08:42:40.275Z,62.22
2023-03-05T08:45:09.224Z,123.07
2023-03-05T08:47:36.751Z,59.13
2023-03-05T08:50:04.376Z,65.32
2023-03-05T08:52:31.711Z,64.55
2023-03-05T08:54:59.100Z,63.22
2023-03-05T08:57:26.556Z,51.90
2023-03-05T08:59:53.965Z,52.58
2023-03-05T09:02:21.375Z,57.55
2023-03-05T09:04:48.876Z,58.75
2023-03-05T09:07:16.360Z,62.22
2023-03-05T09:09:43.901Z,54.47
2023-03-05T09:12:13.351Z,55.60
2023-03-05T09:14:41.277Z,57.63
2023-03-05T09:17:09.444Z,56.92
2023-03-05T09:19:36.883Z,58.42
2023-03-05T09:22:04.448Z,55.17
2023-03-05T09:24:31.942Z,56.95
2023-03-05T09:27:00.424Z,58.75
2023-03-05T09:29:29.463Z,54.88
2023-03-05T09:31:57.155Z,57.65
2023-03-05T09:34:24.683Z,65.22
2023-03-05T09:36:52.096Z,52.88
2023-03-05T09:39:19.586Z,57.90
2023-03-05T09:42:15.927Z,63.60
2023-03-05T09:45:11.386Z,57.42
2023-03-05T09:47:48.681Z,62.28
2023-03-05T09:50:34.063Z,58.15
2023-03-05T09:53:28.640Z,58.05
2023-03-05T09:55:59.569Z,66.60
2023-03-05T09:58:42.440Z,62.83
2023-03-05T10:01:32.056Z,62.17
2023-03-05T10:04:13.178Z,68.32
2023-03-05T10:06:50.266Z,63.63
2023-03-05T10:09:37.000Z,57.50
2023-03-05T10:12:12.424Z,53.47
2023-03-05T10:14:41.329Z,53.58
2023-03-05T10:17:23.752Z,60.50
2023-03-05T10:20:22.112Z,56.92
2023-03-05T10:23:10.477Z,54.42
2023-03-05T10:26:12.539Z,59.35
2023-03-05T10:28:56.717Z,64.33
2023-03-05T10:31:56.554Z,57.67
2023-03-05T10:35:05.494Z,58.45
2023-03-05T10:38:10.042Z,58.72
2023-03-05T10:40:48.679Z,57.13
2023-03-05T10:43:38.728Z,59.15
2023-03-05T10:46:10.522Z,57.85
2023-03-05T10:48:52.325Z,57.55
2023-03-05T10:51:25.524Z,54.92
2023-03-05T10:53:58.646Z,55.42
2023-03-05T10:56:28.772Z,50.28
2023-03-05T10:58:56.193Z,52.08
2023-03-05T11:01:29.327Z,50.30
2023-03-05T11:04:05.772Z,59.38
2023-03-05T11:06:37.389Z,48.75
2023-03-05T11:09:24.457Z,49.58
2023-03-05T11:12:09.786Z,53.67
2023-03-05T11:14:40.278Z,49.10
2023-03-05T11:17:28.442Z,49.25
2023-03-05T11:19:57.489Z,48.88
2023-03-05T11:22:25.981Z,49.33
2023-03-05T11:25:12.463Z,54.38
2023-03-05T11:27:54.554Z,49.60
2023-03-05T11:30:36.151Z,56.55
2023-03-05T11:33:17.608Z,53.28
2023-03-05T11:35:45.359Z,55.33
2023-03-05T11:38:24.613Z,52.45
2023-03-05T11:40:54.999Z,48.50
2023-03-05T11:43:24.828Z,55.55
2023-03-05T11:45:57.261Z,48.90
2023-03-05T11:48:36.151Z,52.15
2023-03-05T11:51:13.713Z,59.78
2023-03-05T11:53:44.564Z,49.85
2023-03-05T11:56:24.345Z,53.40
2023-03-05T11:58:58.920Z,52.63
2023-03-05T12:01:30.620Z,58.70
2023-03-05T12:04:00.150Z,55.42
2023-03-05T12:06:38.861Z,56.67
2023-03-05T12:09:18.792Z,57.65
2023-03-05T12:11:50.314Z,58.30
2023-03-05T12:14:17.694Z,53.53
2023-03-05T12:17:12.548Z,61.70
2023-03-05T12:19:52.661Z,52.92
2023-03-05T12:22:25.316Z,52.17
2023-03-05T12:24:53.225Z,54.70
2023-03-05T12:27:35.223Z,56.85
2023-03-05T12:30:04.079Z,58.05
2023-03-05T12:32:32.355Z,53.13
2023-03-05T12:35:04.552Z,52.03
2023-03-05T12:37:31.895Z,56.55
2023-03-05T12:40:21.721Z,58.00
2023-03-05T12:43:03.601Z,53.35
2023-03-05T12:45:34.101Z,54.47
2023-03-05T12:48:01.864Z,52.22
2023-03-05T12:50:29.248Z,55.85
2023-03-05T12:53:12.473Z,55.47
2023-03-05T12:55:46.041Z,58.88
2023-03-05T12:58:33.793Z,57.80
2023-03-05T13:01:16.428Z,59.17
2023-03-05T13:03:54.450Z,54.50
2023-03-05T13:06:28.235Z,56.55
2023-03-05T13:08:58.161Z,67.88
2023-03-05T13:11:26.004Z,58.25
2023-03-05T13:13:54.125Z,58.55
2023-03-05T13:16:38.869Z,54.90
2023-03-05T13:19:16.514Z,55.25
2023-03-05T13:21:44.192Z,60.00
2023-03-05T13:24:19.477Z,61.20
2023-03-05T13:26:46.835Z,58.60
2023-03-05T13:29:30.723Z,57.85
2023-03-05T13:32:04.310Z,63.70
2023-03-05T13:34:47.753Z,61.95
2023-03-05T13:37:21.119Z,60.78
2023-03-05T13:39:56.767Z,60.55
2023-03-05T13:42:34.679Z,58.97
2023-03-05T13:45:05.532Z,59.47
2023-03-05T13:47:35.668Z,59.58
2023-03-05T13:50:09.797Z,61.13
2023-03-05T13:52:38.810Z,59.28
2023-03-05T13:55:14.725Z,58.10
2023-03-05T13:57:43.430Z,62.75
2023-03-05T14:00:32.387Z,60.30
2023-03-05T14:03:20.764Z,64.13
2023-03-05T14:05:49.937Z,56.38
2023-03-05T14:08:25.398Z,63.80
2023-03-05T14:10:59.167Z,61.85
2023-03-05T14:13:27.881Z,58.70
2023-03-05T14:16:05.932Z,68.00
2023-03-05T14:18:34.119Z,66.75
2023-03-05T14:21:11.145Z,65.90
2023-03-05T14:23:51.623Z,60.00
2023-03-05T14:26:29.344Z,59.90
2023-03-05T14:29:18.430Z,62.15
2023-03-05T14:31:59.071Z,67.57
2023-03-05T14:34:30.865Z,56.55
2023-03-05T14:37:04.257Z,61.38
2023-03-05T14:40:27.053Z,59.58
2023-03-05T14:43:04.856Z,68.07
2023-03-05T14:45:38.808Z,56.15
2023-03-05T14:48:08.128Z,73.50
2023-03-05T14:50:37.278Z,63.15
2023-03-05T14:53:14.923Z,60.30
2023-03-05T14:55:44.702Z,61.92
2023-03-05T14:58:15.481Z,64.60
2023-03-05T15:00:43.605Z,63.67
2023-03-05T15:03:13.065Z,63.67
2023-03-05T15:05:41.231Z,59.35
2023-03-05T15:08:18.307Z,63.85
2023-03-05T15:10:47.407Z,63.00
2023-03-05T15:13:15.591Z,68.13
2023-03-05T15:15:43.919Z,62.25
2023-03-05T15:18:14.061Z,53.22
2023-03-05T15:20:41.796Z,66.78
2023-03-05T15:23:09.338Z,63.75
2023-03-05T15:25:36.673Z,58.50
2023-03-05T15:28:04.109Z,64.28
2023-03-05T15:30:40.898Z,60.92
2023-03-05T15:33:11.356Z,66.13
2023-03-05T15:35:39.379Z,64.40
2023-03-05T15:38:06.765Z,66.40
2023-03-05T15:40:34.436Z,68.65
2023-03-05T15:43:02.187Z,66.80
2023-03-05T15:45:32.650Z,64.78
2023-03-05T15:48:01.062Z,64.60
2023-03-05T15:50:28.533Z,69.53
2023-03-05T15:52:55.934Z,68.00
2023-03-05T15:55:23.424Z,69.00
2023-03-05T15:57:53.184Z,70.35
2023-03-05T16:00:25.761Z,68.47
2023-03-05T16:02:53.588Z,65.88
2023-03-05T16:05:21.319Z,69.47
2023-03-05T16:07:51.797Z,69.15
2023-03-05T16:10:23.985Z,70.10
2023-03-05T16:12:55.196Z,71.57
2023-03-05T16:15:24.216Z,74.47
2023-03-05T16:17:55.175Z,67.80
2023-03-05T16:20:22.949Z,67.78
2023-03-05T16:22:50.567Z,66.47
2023-03-05T16:25:18.096Z,67.88
2023-03-05T16:27:45.694Z,73.70
2023-03-05T16:30:15.885Z,66.10
2023-03-05T16:32:43.794Z,77.82
2023-03-05T16:35:14.559Z,69.72
2023-03-05T16:37:42.418Z,68.88
2023-03-05T16:40:12.167Z,70.03
2023-03-05T16:42:39.737Z,75.88
2023-03-05T16:45:08.029Z,70.60
2023-03-05T16:47:35.806Z,72.88
2023-03-05T16:50:06.830Z,70.63
2023-03-05T16:52:34.328Z,67.88
2023-03-05T16:55:01.670Z,76.10
2023-03-05T16:57:29.223Z,74.00
2023-03-05T16:59:57.564Z,70.07
2023-03-05T17:02:24.967Z,83.85
2023-03-05T17:04:52.876Z,89.80
2023-03-05T17:07:20.300Z,117.43
2023-03-05T17:09:48.179Z,105.95
2023-03-05T17:12:17.533Z,111.68
2023-03-05T17:14:45.135Z,87.03
2023-03-05T17:17:12.545Z,133.35
2023-03-05T17:19:40.278Z,118.85
2023-03-05T17:22:07.669Z,85.18
2023-03-05T17:24:35.121Z,105.18
2023-03-05T17:27:02.439Z,91.95
2023-03-05T17:29:30.618Z,92.82
2023-03-05T17:31:58.046Z,86.80
2023-03-05T17:34:35.630Z,81.43
2023-03-05T17:37:04.822Z,104.68
2023-03-05T17:39:32.668Z,80.88
2023-03-05T17:42:00.912Z,84.03
2023-03-05T17:44:28.326Z,82.40
2023-03-05T17:46:55.912Z,83.32
2023-03-05T17:49:23.269Z,105.57
2023-03-05T17:51:51.641Z,87.82
2023-03-05T17:54:19.068Z,87.18
2023-03-05T17:56:48.032Z,98.13
2023-03-05T17:59:16.431Z,107.63
2023-03-05T18:01:43.863Z,94.05
2023-03-05T18:04:11.401Z,99.35
2023-03-05T18:06:38.919Z,100.43
2023-03-05T18:09:06.523Z,93.72
2023-03-05T18:11:34.155Z,93.28
2023-03-05T18:14:01.869Z,157.60
2023-03-05T18:16:29.864Z,231.85
2023-03-05T18:18:57.258Z,128.00
2023-03-05T18:21:27.744Z,103.30
2023-03-05T18:23:55.501Z,105.75
2023-03-05T18:26:22.891Z,100.07
2023-03-05T18:28:50.265Z,98.47
2023-03-05T18:31:17.844Z,94.68
2023-03-05T18:33:45.521Z,101.72
2023-03-05T18:36:13.969Z,106.80
2023-03-05T18:38:41.418Z,94.38
2023-03-05T18:41:08.939Z,89.55
2023-03-05T18:43:36.526Z,90.10
2023-03-05T18:46:05.050Z,89.78
2023-03-05T18:48:32.536Z,97.85
2023-03-05T18:51:01.854Z,98.82
2023-03-05T18:53:29.718Z,93.85
2023-03-05T18:55:57.106Z,99.50
2023-03-05T18:58:26.006Z,102.43
2023-03-05T19:00:53.729Z,108.60
2023-03-05T19:03:23.003Z,105.82
2023-03-05T19:05:51.279Z,96.72
2023-03-05T19:08:19.621Z,100.15
2023-03-05T19:10:47.495Z,95.78
2023-03-05T19:13:40.507Z,92.05
2023-03-05T19:16:13.033Z,91.18
2023-03-05T19:19:20.638Z,100.95
2023-03-05T19:21:59.626Z,88.55
2023-03-05T19:24:30.586Z,94.93
2023-03-05T19:27:01.048Z,100.70
2023-03-05T19:29:33.109Z,107.05
2023-03-05T19:32:01.774Z,94.78
2023-03-05T19:34:29.178Z,98.25
2023-03-05T19:36:56.581Z,92.63
2023-03-05T19:39:23.986Z,87.72
2023-03-05T19:41:51.701Z,92.43
2023-03-05T19:44:19.413Z,88.13
2023-03-05T19:46:48.525Z,89.05
2023-03-05T19:49:18.054Z,89.20
2023-03-05T19:51:46.735Z,91.88
2023-03-05T19:54:15.553Z,84.00
2023-03-05T19:56:44.262Z,90.60
2023-03-05T19:59:12.277Z,91.72
2023-03-05T20:01:39.713Z,86.13
2023-03-05T20:04:07.153Z,85.97
2023-03-05T20:06:34.809Z,81.85
2023-03-05T20:09:02.253Z,79.07
2023-03-05T20:11:29.692Z,78.78
2023-03-05T20:13:57.333Z,73.07
2023-03-05T20:16:30.266Z,71.72
2023-03-05T20:18:59.227Z,75.25
2023-03-05T20:21:39.636Z,74.53
2023-03-05T20:24:16.253Z,75.03
2023-03-05T20:26:45.014Z,73.78
2023-03-05T20:29:17.353Z,78.60
2023-03-05T20:31:45.938Z,79.57
2023-03-05T20:34:15.931Z,77.35
2023-03-05T20:36:43.618Z,74.95
2023-03-05T20:39:11.056Z,67.15
2023-03-05T20:41:39.599Z,73.20
2023-03-05T20:44:08.241Z,67.40
2023-03-05T20:46:57.634Z,66.68
2023-03-05T20:50:05.008Z,65.13
2023-03-05T20:52:32.391Z,71.13
2023-03-05T20:55:00.652Z,61.67
2023-03-05T20:57:28.049Z,73.57
2023-03-05T20:59:55.592Z,70.93
2023-03-05T21:02:23.331Z,77.03
2023-03-05T21:04:50.794Z,73.03
2023-03-05T21:07:18.303Z,72.53
2023-03-05T21:09:45.714Z,72.88
2023-03-05T21:12:13.107Z,64.93
2023-03-05T21:14:40.875Z,73.75
2023-03-05T21:17:09.643Z,71.63
2023-03-05T21:19:38.658Z,68.88
2023-03-05T21:22:06.124Z,68.40
2023-03-05T21:25:23.131Z,72.22
2023-03-05T21:28:02.214Z,62.22
2023-03-05T21:30:36.536Z,70.45
2023-03-05T21:33:11.064Z,76.65
2023-03-05T21:35:39.689Z,66.47
2023-03-05T21:38:08.881Z,78.25
2023-03-05T21:40:39.682Z,67.50
2023-03-05T21:43:07.904Z,70.32
2023-03-05T21:45:35.335Z,68.28
2023-03-05T21:48:02.852Z,74.43
2023-03-05T21:50:30.374Z,68.35
2023-03-05T21:52:57.982Z,74.78
2023-03-05T21:56:30.988Z,68.88
2023-03-05T21:58:58.528Z,72.05
2023-03-05T22:01:26.028Z,66.13
2023-03-05T22:03:53.996Z,78.57
2023-03-05T22:06:21.907Z,72.25
2023-03-05T22:08:49.372Z,75.30
2023-03-05T22:11:19.158Z,76.20
2023-03-05T22:13:46.753Z,69.93
2023-03-05T22:16:23.104Z,71.38
2023-03-05T22:18:51.124Z,68.80
2023-03-05T22:21:25.784Z,68.75
2023-03-05T22:23:54.384Z,70.55
2023-03-05T22:26:21.796Z,74.95
2023-03-05T22:28:50.159Z,72.43
2023-03-05T22:31:25.821Z,70.75
2023-03-05T22:33:53.968Z,73.75
2023-03-05T22:36:21.388Z,78.13
2023-03-05T22:38:48.905Z,70.72
2023-03-05T22:41:19.806Z,70.93
2023-03-05T22:43:48.460Z,69.55
2023-03-05T22:46:24.256Z,70.93
2023-03-05T22:48:52.585Z,72.03
2023-03-05T22:51:20.718Z,80.28
2023-03-05T22:53:48.210Z,80.10
2023-03-05T22:56:21.459Z,82.30
2023-03-05T22:58:49.055Z,87.55
2023-03-05T23:01:25.461Z,75.55
2023-03-05T23:04:54.796Z,74.63
2023-03-05T23:07:25.466Z,79.35
2023-03-05T23:09:58.099Z,77.65
2023-03-05T23:12:27.747Z,74.50
2023-03-05T23:14:55.386Z,75.43
2023-03-05T23:17:22.799Z,75.97
2023-03-05T23:19:50.194Z,76.80
2023-03-05T23:22:17.642Z,77.22
2023-03-05T23:24:45.126Z,81.70
2023-03-05T23:27:15.976Z,83.43
2023-03-05T23:30:43.141Z,70.78
2023-03-05T23:33:24.104Z,90.28
2023-03-05T23:36:00.065Z,77.53
2023-03-05T23:38:30.490Z,75.75
2023-03-05T23:41:01.415Z,79.28
2023-03-05T23:43:29.426Z,77.93
2023-03-05T23:45:57.203Z,81.85
2023-03-05T23:48:26.532Z,71.10
2023-03-05T23:50:54.469Z,74.72
2023-03-05T23:53:25.423Z,75.45
2023-03-05T23:55:53.086Z,78.60
2023-03-05T23:58:20.560Z,85.88
